Time;durP1;ratioP1;P1;durP2;ratioP2;P2;SDS_P1;SDS_P2;PMS_P1;PMS_P2;Temp;Humidity;BMP_temperature;BMP_pressure;BME280_temperature;BME280_humidity;BME280_pressure;Samples;Min_cycle;Max_cycle;Signal;HPM_P1;HPM_P2
2022/03/11 00:02:23;;;;;;;10.60;7.30;;;5.60;57.80;;;;;;5090583;28;20436;-75
2022/03/11 00:04:49;;;;;;;10.10;7.93;;;5.70;56.90;;;;;;5089922;28;20264;-76
2022/03/11 00:07:15;;;;;;;12.20;7.90;;;5.70;57.70;;;;;;5089558;28;20603;-75
2022/03/11 00:09:41;;;;;;;15.57;8.10;;;5.60;58.50;;;;;;5090611;28;20276;-75
2022/03/11 00:12:08;;;;;;;12.43;8.60;;;5.60;58.60;;;;;;5090199;28;20523;-74
2022/03/11 00:14:34;;;;;;;14.40;8.23;;;5.60;59.30;;;;;;5090182;28;20535;-74
2022/03/11 00:17:00;;;;;;;14.43;9.00;;;5.50;59.80;;;;;;5089585;28;20464;-74
2022/03/11 00:19:26;;;;;;;15.67;9.10;;;5.50;60.20;;;;;;5090099;28;20422;-74
2022/03/11 00:21:51;;;;;;;14.57;9.03;;;5.50;60.90;;;;;;5090378;28;20202;-74
2022/03/11 00:24:17;;;;;;;15.87;9.70;;;5.40;61.70;;;;;;5090709;28;20183;-74
2022/03/11 00:26:43;;;;;;;10.33;7.83;;;5.40;62.70;;;;;;5090421;28;20207;-75
2022/03/11 00:29:09;;;;;;;13.27;8.43;;;5.30;63.10;;;;;;5090243;28;20459;-74
2022/03/11 00:31:34;;;;;;;26.43;10.13;;;5.40;63.50;;;;;;5088620;28;20209;-74
2022/03/11 00:34:00;;;;;;;18.83;10.50;;;5.20;64.60;;;;;;5090937;28;20191;-75
2022/03/11 00:36:26;;;;;;;15.60;9.07;;;5.20;65.80;;;;;;5090168;28;20194;-75
2022/03/11 00:38:51;;;;;;;15.40;9.07;;;5.20;66.80;;;;;;5091371;28;20205;-75
2022/03/11 00:41:17;;;;;;;17.33;10.03;;;5.10;67.50;;;;;;5090604;28;20269;-75
2022/03/11 00:43:43;;;;;;;17.17;10.67;;;5.00;68.50;;;;;;5090194;28;20186;-76
2022/03/11 00:46:09;;;;;;;14.17;9.70;;;4.90;69.60;;;;;;5090890;28;20456;-76
2022/03/11 00:48:34;;;;;;;18.67;10.63;;;4.90;70.80;;;;;;5091789;28;20197;-76
2022/03/11 00:51:00;;;;;;;12.50;9.53;;;4.80;71.70;;;;;;5093426;28;20424;-77
2022/03/11 00:53:27;;;;;;;20.87;11.13;;;4.80;72.40;;;;;;5098059;28;20207;-77
2022/03/11 00:55:54;;;;;;;16.40;10.43;;;4.80;72.50;;;;;;5064834;28;20186;-77
2022/03/11 00:58:19;;;;;;;19.40;9.73;;;4.90;72.70;;;;;;5096441;28;20557;-76
2022/03/11 01:00:45;;;;;;;19.70;11.27;;;4.90;72.80;;;;;;5096756;28;20440;-77
2022/03/11 01:03:11;;;;;;;21.13;11.27;;;4.90;73.40;;;;;;5097166;28;20206;-77
2022/03/11 01:05:36;;;;;;;18.73;10.77;;;4.80;73.70;;;;;;5099577;28;20184;-77
2022/03/11 01:08:02;;;;;;;19.63;10.80;;;4.70;74.70;;;;;;5081842;28;20200;-78
2022/03/11 01:10:28;;;;;;;16.20;12.03;;;4.70;76.10;;;;;;5098345;28;20209;-77
2022/03/11 01:12:54;;;;;;;25.57;13.20;;;4.60;76.70;;;;;;5094069;28;20492;-77
2022/03/11 01:15:20;;;;;;;19.13;12.50;;;4.70;77.10;;;;;;5097387;28;20922;-77
2022/03/11 01:17:45;;;;;;;18.33;11.90;;;4.60;77.50;;;;;;5099359;28;20474;-77
2022/03/11 01:20:12;;;;;;;19.30;12.27;;;4.50;78.10;;;;;;5099357;28;20206;-77
2022/03/11 01:22:38;;;;;;;23.43;13.40;;;4.40;78.60;;;;;;5099326;28;20224;-76
2022/03/11 01:25:05;;;;;;;20.20;12.43;;;4.50;79.50;;;;;;5100082;28;20426;-77
2022/03/11 01:27:31;;;;;;;19.60;12.40;;;4.50;79.60;;;;;;5100947;28;20446;-77
2022/03/11 01:29:56;;;;;;;19.60;12.90;;;4.50;79.80;;;;;;5101168;28;20423;-77
2022/03/11 01:32:22;;;;;;;18.00;12.47;;;4.30;80.40;;;;;;5100894;28;20224;-77
2022/03/11 01:34:48;;;;;;;23.17;13.30;;;4.10;81.30;;;;;;5082547;28;20186;-77
2022/03/11 01:37:13;;;;;;;17.93;12.20;;;4.10;81.90;;;;;;5082164;28;20216;-77
2022/03/11 01:39:39;;;;;;;23.83;14.87;;;4.00;82.70;;;;;;5098534;28;20232;-77
2022/03/11 01:42:06;;;;;;;21.17;14.37;;;3.90;84.10;;;;;;5098735;28;20296;-77
2022/03/11 01:44:31;;;;;;;19.98;13.88;;;3.80;85.70;;;;;;5096943;28;20178;-76
2022/03/11 01:46:57;;;;;;;22.40;14.50;;;3.80;86.20;;;;;;5097433;28;20201;-77
2022/03/11 01:49:22;;;;;;;19.80;12.93;;;3.90;86.70;;;;;;5099805;28;20197;-77
2022/03/11 01:51:48;;;;;;;25.60;15.20;;;3.80;86.60;;;;;;5099675;28;20212;-77
2022/03/11 01:54:14;;;;;;;23.00;14.50;;;3.70;87.20;;;;;;5098919;28;20566;-77
2022/03/11 01:56:40;;;;;;;23.03;14.20;;;3.70;87.50;;;;;;5098137;28;20189;-77
2022/03/11 01:59:08;;;;;;;23.65;15.05;;;3.70;87.70;;;;;;5098585;28;20429;-77
2022/03/11 02:01:34;;;;;;;21.25;14.32;;;3.60;88.10;;;;;;5103645;28;20247;-76
2022/03/11 02:04:00;;;;;;;25.73;15.13;;;3.50;88.80;;;;;;5098591;28;20197;-76
2022/03/11 02:06:26;;;;;;;23.37;15.00;;;3.50;89.20;;;;;;5094788;28;20181;-75
2022/03/11 02:08:53;;;;;;;24.65;16.05;;;3.40;89.50;;;;;;5092261;28;20474;-75
2022/03/11 02:11:19;;;;;;;25.83;16.23;;;3.50;90.00;;;;;;5092349;28;20193;-75
2022/03/11 02:13:51;;;;;;;28.52;15.77;;;3.50;89.70;;;;;;5093366;28;20445;-75
2022/03/11 02:16:26;;;;;;;26.58;16.20;;;3.40;89.90;;;;;;5075566;28;20189;-74
2022/03/11 02:18:52;;;;;;;25.92;15.98;;;3.40;89.70;;;;;;5091971;28;20182;-75
2022/03/11 02:21:19;;;;;;;24.02;15.13;;;3.40;89.70;;;;;;5092359;28;20217;-76
2022/03/11 02:23:46;;;;;;;26.08;15.10;;;3.40;89.90;;;;;;5092689;28;20170;-76
2022/03/11 02:26:14;;;;;;;28.88;14.88;;;3.20;90.00;;;;;;5090925;28;20662;-76
2022/03/11 02:28:40;;;;;;;25.35;15.15;;;3.30;90.10;;;;;;5092534;28;20207;-76
2022/03/11 02:31:06;;;;;;;25.63;15.23;;;3.20;90.20;;;;;;5090845;28;20225;-76
2022/03/11 02:33:31;;;;;;;25.17;14.93;;;3.10;90.20;;;;;;5092657;28;20233;-75
2022/03/11 02:35:57;;;;;;;21.77;13.83;;;3.10;90.40;;;;;;5092616;28;20730;-76
2022/03/11 02:38:23;;;;;;;28.57;15.40;;;3.10;90.40;;;;;;5092858;28;20174;-76
2022/03/11 02:40:49;;;;;;;25.10;15.43;;;3.00;90.50;;;;;;5093159;28;20259;-76
2022/03/11 02:43:15;;;;;;;24.83;16.03;;;3.00;90.50;;;;;;5091704;28;20208;-76
2022/03/11 02:45:41;;;;;;;25.98;15.80;;;3.00;90.60;;;;;;5091228;28;20446;-76
2022/03/11 02:48:06;;;;;;;25.67;15.70;;;2.90;90.70;;;;;;5092489;28;20211;-76
2022/03/11 02:50:32;;;;;;;23.90;16.00;;;2.90;90.90;;;;;;5092633;28;20217;-76
2022/03/11 02:52:58;;;;;;;24.20;15.90;;;2.80;91.00;;;;;;5092029;28;20205;-76
2022/03/11 02:55:24;;;;;;;26.80;15.03;;;2.90;90.90;;;;;;5093138;28;20417;-76
2022/03/11 02:57:49;;;;;;;24.20;16.00;;;2.90;90.90;;;;;;5091000;28;20196;-76
2022/03/11 03:00:15;;;;;;;26.00;15.87;;;2.90;90.90;;;;;;5092285;28;20271;-76
2022/03/11 03:02:41;;;;;;;25.33;15.57;;;2.90;91.10;;;;;;5092242;28;20295;-76
2022/03/11 03:05:07;;;;;;;24.47;16.03;;;2.90;91.00;;;;;;5092469;28;20281;-77
2022/03/11 03:07:33;;;;;;;24.75;15.27;;;2.90;91.00;;;;;;5091464;28;20209;-76
2022/03/11 03:09:59;;;;;;;24.50;15.97;;;2.80;91.20;;;;;;5074970;28;20540;-77
2022/03/11 03:12:25;;;;;;;27.73;16.10;;;2.80;91.30;;;;;;5091550;28;20453;-76
2022/03/11 03:14:51;;;;;;;24.38;16.30;;;2.60;91.30;;;;;;5092092;28;20183;-76
2022/03/11 03:17:18;;;;;;;23.87;15.00;;;2.60;91.40;;;;;;5094589;28;20198;-76
2022/03/11 03:19:44;;;;;;;29.50;15.77;;;2.50;91.60;;;;;;5092888;28;20527;-77
2022/03/11 03:22:10;;;;;;;31.33;17.60;;;2.40;92.00;;;;;;5092895;28;20214;-77
2022/03/11 03:24:36;;;;;;;32.60;15.88;;;2.40;92.10;;;;;;5091950;28;20204;-77
2022/03/11 03:27:02;;;;;;;25.60;15.50;;;2.40;91.90;;;;;;5091009;28;20260;-77
2022/03/11 03:29:28;;;;;;;24.90;15.30;;;2.30;92.20;;;;;;5075163;28;20427;-77
2022/03/11 03:31:57;;;;;;;31.50;17.30;;;2.30;92.40;;;;;;5090531;28;20492;-77
2022/03/11 03:34:30;;;;;;;24.42;15.93;;;2.10;92.20;;;;;;5090617;28;20509;-77
2022/03/11 03:36:59;;;;;;;29.05;15.63;;;2.10;92.80;;;;;;5092417;28;20191;-77
2022/03/11 03:39:25;;;;;;;29.90;17.45;;;2.10;92.70;;;;;;5091824;28;20190;-77
2022/03/11 03:41:52;;;;;;;23.90;15.50;;;2.10;92.60;;;;;;5095225;28;20261;-77
2022/03/11 03:44:18;;;;;;;30.38;16.33;;;2.10;92.60;;;;;;5093538;28;20182;-78
2022/03/11 03:46:43;;;;;;;22.57;14.90;;;2.10;92.60;;;;;;5092526;28;20205;-78
2022/03/11 03:49:09;;;;;;;27.27;15.57;;;1.90;92.70;;;;;;5093149;28;20256;-77
2022/03/11 03:51:38;;;;;;;22.20;13.13;;;1.90;92.90;;;;;;5091701;28;20714;-78
2022/03/11 03:54:04;;;;;;;21.80;14.63;;;1.80;92.90;;;;;;5090502;28;20285;-76
2022/03/11 03:56:29;;;;;;;24.30;14.32;;;1.80;93.10;;;;;;5090618;28;20713;-76
2022/03/11 03:58:55;;;;;;;24.67;15.80;;;1.70;93.20;;;;;;5073031;28;20176;-76
2022/03/11 04:01:21;;;;;;;28.83;15.10;;;1.70;93.20;;;;;;5090793;28;20182;-76
2022/03/11 04:03:46;;;;;;;22.47;15.10;;;1.70;93.20;;;;;;5091867;28;20693;-75
2022/03/11 04:06:12;;;;;;;22.93;14.40;;;1.60;93.20;;;;;;5089238;28;20195;-76
2022/03/11 04:08:38;;;;;;;27.63;15.30;;;1.70;92.70;;;;;;5088795;28;20231;-76
2022/03/11 04:11:03;;;;;;;27.63;16.30;;;1.70;92.60;;;;;;5089026;28;20474;-76
2022/03/11 04:13:29;;;;;;;24.17;14.63;;;1.70;92.50;;;;;;5090517;28;20463;-76
2022/03/11 04:15:55;;;;;;;23.70;13.50;;;1.60;92.50;;;;;;5090113;28;20176;-76
2022/03/11 04:18:21;;;;;;;21.73;13.30;;;1.60;92.30;;;;;;5091152;28;20195;-77
2022/03/11 04:20:47;;;;;;;22.23;14.60;;;1.60;92.10;;;;;;5091785;28;20581;-77
2022/03/11 04:23:12;;;;;;;19.73;13.20;;;1.60;91.90;;;;;;5091733;28;20220;-77
2022/03/11 04:25:38;;;;;;;21.00;13.90;;;1.60;91.80;;;;;;5072196;28;20241;-76
2022/03/11 04:28:04;;;;;;;23.03;13.43;;;1.60;91.50;;;;;;5089144;28;20286;-76
2022/03/11 04:30:29;;;;;;;21.10;12.83;;;1.60;91.10;;;;;;5071718;28;20190;-76
2022/03/11 04:32:55;;;;;;;20.30;12.33;;;1.50;91.00;;;;;;5089577;28;20448;-76
2022/03/11 04:35:21;;;;;;;20.17;13.33;;;1.70;90.90;;;;;;5089155;28;20992;-76
2022/03/11 04:37:46;;;;;;;25.00;12.40;;;1.50;90.80;;;;;;5071673;28;20196;-76
2022/03/11 04:40:12;;;;;;;20.50;12.43;;;1.40;91.10;;;;;;5092237;28;20205;-77
2022/03/11 04:42:38;;;;;;;20.40;12.53;;;1.40;91.00;;;;;;5093845;28;20209;-77
2022/03/11 04:45:04;;;;;;;19.70;12.40;;;1.30;90.90;;;;;;5093887;28;20202;-77
2022/03/11 04:47:30;;;;;;;20.52;13.07;;;1.30;91.20;;;;;;5094459;28;20208;-77
2022/03/11 04:49:56;;;;;;;16.97;11.20;;;1.20;91.00;;;;;;5094643;28;20185;-76
2022/03/11 04:52:21;;;;;;;20.20;10.90;;;1.30;90.80;;;;;;5077854;28;20318;-76
2022/03/11 04:54:47;;;;;;;21.60;12.30;;;1.30;90.30;;;;;;5093215;28;20287;-76
2022/03/11 04:57:13;;;;;;;19.63;12.20;;;1.30;90.20;;;;;;5093011;28;20198;-76
2022/03/11 04:59:38;;;;;;;25.60;12.00;;;1.20;90.10;;;;;;5093140;28;20431;-77
2022/03/11 05:02:04;;;;;;;19.07;11.10;;;1.20;89.80;;;;;;5091395;28;20195;-76
2022/03/11 05:04:30;;;;;;;17.07;9.00;;;1.10;90.40;;;;;;5093271;28;20257;-75
2022/03/11 05:06:55;;;;;;;17.90;10.77;;;1.10;89.90;;;;;;5091262;28;20207;-77
2022/03/11 05:09:21;;;;;;;15.03;9.73;;;1.10;90.00;;;;;;5092689;28;20185;-77
2022/03/11 05:11:47;;;;;;;14.60;9.50;;;1.10;90.00;;;;;;5092253;28;20191;-77
2022/03/11 05:14:12;;;;;;;18.37;10.50;;;1.00;90.10;;;;;;5073088;28;20207;-77
2022/03/11 05:16:38;;;;;;;20.87;11.27;;;1.00;90.00;;;;;;5092255;28;20180;-77
2022/03/11 05:19:03;;;;;;;17.27;11.20;;;1.00;90.00;;;;;;5089632;28;20176;-77
2022/03/11 05:21:29;;;;;;;14.70;9.47;;;0.90;89.80;;;;;;5091717;28;20203;-77
2022/03/11 05:23:55;;;;;;;17.17;10.30;;;1.00;89.40;;;;;;5091905;28;20178;-77
2022/03/11 05:26:28;;;;;;;13.93;9.00;;;0.90;89.40;;;;;;5092654;28;20822;-77
2022/03/11 05:28:56;;;;;;;23.17;11.02;;;1.00;89.40;;;;;;5092331;28;20245;-77
2022/03/11 05:31:22;;;;;;;21.17;12.10;;;1.00;88.70;;;;;;5092604;28;20559;-77
2022/03/11 05:33:48;;;;;;;14.50;9.40;;;1.00;88.60;;;;;;5090689;28;20186;-77
2022/03/11 05:36:15;;;;;;;15.45;10.38;;;1.00;88.00;;;;;;5091073;28;20182;-77
2022/03/11 05:38:41;;;;;;;16.25;10.07;;;1.00;87.60;;;;;;5089212;28;20193;-78
2022/03/11 05:41:06;;;;;;;15.10;9.60;;;1.00;87.20;;;;;;5090411;28;20186;-77
2022/03/11 05:43:32;;;;;;;16.53;9.80;;;1.00;87.20;;;;;;5091537;28;20213;-77
2022/03/11 05:45:57;;;;;;;18.03;9.90;;;0.90;87.00;;;;;;5090195;28;20222;-77
2022/03/11 05:48:23;;;;;;;16.77;9.50;;;0.90;87.80;;;;;;5091168;28;20255;-77
2022/03/11 05:50:49;;;;;;;70.57;28.03;;;0.80;86.90;;;;;;5090881;28;20232;-77
2022/03/11 05:53:15;;;;;;;17.07;10.07;;;0.80;86.80;;;;;;5089455;28;20247;-77
2022/03/11 05:55:41;;;;;;;15.10;8.32;;;0.80;86.50;;;;;;5091141;28;20204;-76
2022/03/11 05:58:06;;;;;;;16.30;10.27;;;0.80;85.80;;;;;;5090842;28;20254;-77
2022/03/11 06:00:32;;;;;;;16.63;9.57;;;0.90;85.80;;;;;;5091664;28;20430;-76
2022/03/11 06:02:58;;;;;;;15.70;9.57;;;0.90;86.00;;;;;;5090927;28;20210;-77
2022/03/11 06:05:24;;;;;;;15.87;9.20;;;0.90;85.80;;;;;;5089132;28;20435;-76
2022/03/11 06:07:49;;;;;;;14.63;8.40;;;1.00;85.60;;;;;;5090561;28;20203;-76
2022/03/11 06:10:15;;;;;;;15.27;9.00;;;1.00;84.80;;;;;;5091269;28;20179;-76
2022/03/11 06:12:41;;;;;;;13.70;8.57;;;1.10;84.30;;;;;;5089975;28;20199;-77
2022/03/11 06:15:13;;;;;;;16.20;9.77;;;1.00;83.30;;;;;;5090044;28;20180;-76
2022/03/11 06:17:39;;;;;;;15.75;8.50;;;1.00;83.70;;;;;;5089432;28;20175;-76
2022/03/11 06:20:05;;;;;;;12.90;8.80;;;1.00;83.10;;;;;;5089096;28;20740;-76
2022/03/11 06:22:31;;;;;;;16.05;7.65;;;0.90;83.60;;;;;;5089789;28;20210;-75
2022/03/11 06:24:59;;;;;;;13.13;8.00;;;0.80;83.50;;;;;;5071661;28;20190;-77
2022/03/11 06:27:25;;;;;;;14.15;9.20;;;0.90;83.50;;;;;;5072130;28;20276;-77
2022/03/11 06:29:52;;;;;;;14.43;8.25;;;1.00;83.20;;;;;;5090751;28;20244;-78
2022/03/11 06:32:18;;;;;;;11.80;7.97;;;1.50;83.20;;;;;;5090601;28;20202;-75
2022/03/11 06:34:44;;;;;;;14.27;8.73;;;2.20;80.40;;;;;;5089903;28;20208;-77
2022/03/11 06:37:09;;;;;;;12.80;9.10;;;2.80;77.20;;;;;;5089202;28;20239;-77
2022/03/11 06:39:35;;;;;;;13.97;8.73;;;3.30;73.50;;;;;;5089775;28;20281;-77
2022/03/11 06:42:01;;;;;;;15.83;8.43;;;3.70;70.60;;;;;;5087603;28;20631;-77
2022/03/11 06:44:26;;;;;;;14.10;8.47;;;4.40;66.90;;;;;;5090495;28;20293;-76
2022/03/11 06:46:52;;;;;;;14.60;9.20;;;5.30;66.00;;;;;;5088274;28;20228;-76
2022/03/11 06:49:17;;;;;;;26.30;10.00;;;5.60;60.50;;;;;;5088691;28;20730;-77
2022/03/11 06:51:43;;;;;;;16.57;9.33;;;5.50;59.50;;;;;;5089626;28;20203;-76
2022/03/11 06:54:09;;;;;;;16.20;8.70;;;5.40;59.00;;;;;;5089062;28;20244;-76
2022/03/11 06:56:35;;;;;;;13.80;9.27;;;5.40;58.40;;;;;;5089838;28;20198;-77
2022/03/11 06:59:03;;;;;;;14.03;9.50;;;5.30;59.30;;;;;;5089713;28;20800;-77
2022/03/11 07:01:28;;;;;;;12.73;9.63;;;5.50;57.80;;;;;;5089115;28;20428;-75
2022/03/11 07:03:54;;;;;;;11.53;8.77;;;6.20;57.10;;;;;;5070910;28;20424;-77
2022/03/11 07:06:20;;;;;;;18.50;8.70;;;6.50;55.80;;;;;;5086141;28;20289;-77
2022/03/11 07:08:45;;;;;;;16.03;9.53;;;6.90;55.30;;;;;;5086752;28;20238;-76
2022/03/11 07:11:11;;;;;;;12.60;8.90;;;7.00;53.80;;;;;;5088336;28;20251;-77
2022/03/11 07:13:37;;;;;;;8.77;6.80;;;6.90;54.40;;;;;;5087261;28;20202;-77
2022/03/11 07:16:02;;;;;;;16.87;8.73;;;6.70;53.60;;;;;;5070573;28;20190;-76
2022/03/11 07:18:28;;;;;;;14.40;8.20;;;6.80;53.90;;;;;;5090792;28;20429;-77
2022/03/11 07:20:54;;;;;;;11.53;8.00;;;7.00;53.60;;;;;;5088123;28;20651;-76
2022/03/11 07:23:19;;;;;;;8.70;7.80;;;6.80;52.90;;;;;;5086067;28;20683;-77
2022/03/11 07:25:45;;;;;;;9.00;7.10;;;6.50;53.40;;;;;;5087399;28;20194;-77
2022/03/11 07:28:11;;;;;;;15.63;9.13;;;7.00;54.00;;;;;;5087275;28;20682;-77
2022/03/11 07:30:38;;;;;;;11.40;8.20;;;6.90;54.00;;;;;;5069444;28;20187;-76
2022/03/11 07:33:03;;;;;;;14.10;8.70;;;6.80;53.10;;;;;;5086491;28;20468;-77
2022/03/11 07:35:29;;;;;;;15.20;9.07;;;7.10;53.10;;;;;;5087870;28;20448;-76
2022/03/11 07:37:55;;;;;;;10.40;7.80;;;7.40;52.70;;;;;;5087635;28;20477;-76
2022/03/11 07:40:21;;;;;;;10.07;8.03;;;7.30;51.90;;;;;;5069608;28;20485;-76
2022/03/11 07:42:46;;;;;;;12.90;7.80;;;7.20;51.60;;;;;;5069807;28;20675;-76
2022/03/11 07:45:13;;;;;;;14.30;7.83;;;7.50;52.20;;;;;;5086524;28;20535;-76
2022/03/11 07:47:43;;;;;;;12.70;9.00;;;7.40;51.60;;;;;;5087958;28;20762;-76
2022/03/11 07:50:10;;;;;;;12.20;7.77;;;7.60;52.50;;;;;;5088077;28;20432;-77
2022/03/11 07:52:36;;;;;;;15.60;8.37;;;8.00;52.20;;;;;;5086620;28;20461;-76
2022/03/11 07:55:02;;;;;;;19.40;7.23;;;8.20;50.80;;;;;;5087969;28;21374;-76
2022/03/11 07:57:27;;;;;;;12.87;8.47;;;8.20;51.50;;;;;;5087730;28;20454;-76
2022/03/11 07:59:53;;;;;;;16.03;8.67;;;7.90;50.60;;;;;;5086513;28;21003;-76
2022/03/11 08:02:19;;;;;;;10.47;7.80;;;7.90;51.20;;;;;;5087759;28;20220;-77
2022/03/11 08:04:44;;;;;;;14.97;8.77;;;8.00;50.80;;;;;;5088132;28;20190;-76
2022/03/11 08:07:11;;;;;;;23.90;16.80;;;8.20;51.00;;;;;;5088213;28;20206;-76
2022/03/11 08:09:40;;;;;;;19.97;13.53;;;8.30;50.80;;;;;;5087969;28;20269;-77
2022/03/11 08:12:06;;;;;;;12.70;8.60;;;8.60;51.60;;;;;;5087915;28;20445;-76
2022/03/11 08:14:32;;;;;;;11.30;8.70;;;8.60;50.10;;;;;;5090940;28;20421;-77
2022/03/11 08:16:58;;;;;;;13.30;8.50;;;8.70;49.80;;;;;;5090812;28;20490;-77
2022/03/11 08:19:24;;;;;;;13.40;10.27;;;8.90;49.90;;;;;;5090745;28;20196;-76
2022/03/11 08:21:54;;;;;;;15.70;9.63;;;9.50;50.00;;;;;;5092272;28;20490;-77
2022/03/11 08:24:20;;;;;;;16.30;8.87;;;10.00;48.30;;;;;;5092339;28;20420;-76
2022/03/11 08:26:47;;;;;;;14.67;10.43;;;10.40;47.90;;;;;;5091019;28;20435;-76
2022/03/11 08:29:13;;;;;;;12.60;8.77;;;10.70;48.10;;;;;;5090992;28;21010;-76
2022/03/11 08:31:38;;;;;;;13.10;8.57;;;10.70;46.00;;;;;;5092195;28;20436;-76
2022/03/11 08:34:05;;;;;;;15.00;9.30;;;11.20;46.10;;;;;;5092259;28;20184;-77
2022/03/11 08:36:31;;;;;;;15.63;8.70;;;11.40;44.80;;;;;;5092263;28;20190;-77
2022/03/11 08:38:56;;;;;;;21.73;10.87;;;11.70;45.00;;;;;;5090812;28;20474;-77
2022/03/11 08:41:25;;;;;;;17.40;11.40;;;11.80;45.20;;;;;;5091119;28;20718;-76
2022/03/11 08:43:51;;;;;;;21.60;12.23;;;11.70;45.70;;;;;;5092313;28;20671;-77
2022/03/11 08:46:17;;;;;;;19.33;11.67;;;11.70;44.70;;;;;;5073680;28;20425;-77
2022/03/11 08:48:43;;;;;;;14.80;10.97;;;11.80;44.50;;;;;;5091814;28;20276;-76
2022/03/11 08:51:10;;;;;;;16.93;10.97;;;12.00;45.30;;;;;;5091418;28;20759;-77
2022/03/11 08:53:36;;;;;;;17.00;9.50;;;12.40;45.20;;;;;;5091500;28;20495;-77
2022/03/11 08:56:02;;;;;;;15.57;10.70;;;12.60;44.30;;;;;;5091647;28;20907;-77
2022/03/11 08:58:28;;;;;;;16.67;10.60;;;12.50;43.30;;;;;;5090437;28;20820;-77
2022/03/11 09:00:54;;;;;;;17.17;10.97;;;12.70;43.80;;;;;;5091516;28;20426;-76
2022/03/11 09:03:20;;;;;;;16.97;10.80;;;12.90;43.80;;;;;;5091389;28;20574;-76
2022/03/11 09:05:45;;;;;;;14.40;10.10;;;13.10;43.10;;;;;;5089962;28;20961;-77
2022/03/11 09:08:11;;;;;;;14.63;10.20;;;13.40;42.90;;;;;;5091255;28;20733;-77
2022/03/11 09:10:37;;;;;;;18.23;9.73;;;13.10;41.70;;;;;;5091599;28;20197;-77
2022/03/11 09:13:03;;;;;;;15.50;9.60;;;13.30;42.50;;;;;;5091430;28;20232;-77
2022/03/11 09:15:29;;;;;;;18.50;9.93;;;13.40;42.00;;;;;;5091413;28;20179;-77
2022/03/11 09:17:55;;;;;;;18.10;10.23;;;14.10;42.00;;;;;;5089657;28;20427;-75
2022/03/11 09:20:23;;;;;;;19.80;10.50;;;14.60;41.80;;;;;;5091659;28;20425;-77
2022/03/11 09:22:49;;;;;;;16.50;10.90;;;15.30;41.50;;;;;;5090774;28;20245;-77
2022/03/11 09:25:18;;;;;;;14.27;9.93;;;15.40;40.60;;;;;;5089632;28;20434;-77
2022/03/11 09:27:44;;;;;;;22.00;10.93;;;15.70;39.50;;;;;;5089459;28;20462;-78
2022/03/11 09:30:11;;;;;;;15.93;10.77;;;15.80;38.60;;;;;;5091228;28;20606;-76
2022/03/11 09:32:39;;;;;;;15.07;9.90;;;16.30;38.60;;;;;;5089087;28;20432;-78
2022/03/11 09:35:07;;;;;;;24.73;11.40;;;16.20;38.30;;;;;;5090723;28;20414;-77
2022/03/11 09:37:32;;;;;;;14.67;10.23;;;16.40;38.10;;;;;;5090546;28;21008;-77
2022/03/11 09:39:58;;;;;;;20.00;10.90;;;16.70;37.80;;;;;;5090955;28;20493;-78
2022/03/11 09:42:24;;;;;;;15.73;10.23;;;16.80;37.10;;;;;;5093225;28;20251;-78
2022/03/11 09:44:53;;;;;;;17.10;11.80;;;17.00;36.60;;;;;;5091551;28;20468;-76
2022/03/11 09:47:19;;;;;;;17.20;10.70;;;17.00;36.90;;;;;;5096121;28;20595;-78
2022/03/11 09:49:49;;;;;;;16.33;10.70;;;17.20;36.40;;;;;;5092271;28;20846;-77
2022/03/11 09:52:17;;;;;;;19.60;10.97;;;17.20;35.90;;;;;;5092781;28;20495;-77
2022/03/11 09:54:45;;;;;;;16.43;10.87;;;17.50;36.00;;;;;;5092937;28;21253;-76
2022/03/11 09:57:16;;;;;;;17.00;10.27;;;17.60;35.50;;;;;;5092594;28;20446;-77
2022/03/11 09:59:41;;;;;;;13.00;10.20;;;17.50;35.40;;;;;;5092421;28;21245;-77
2022/03/11 10:02:14;;;;;;;13.47;10.30;;;17.60;35.00;;;;;;5092128;28;20446;-77
2022/03/11 10:04:51;;;;;;;16.00;10.70;;;17.70;34.70;;;;;;5077920;28;20185;-78
2022/03/11 10:07:25;;;;;;;13.77;9.80;;;17.80;34.30;;;;;;5093040;28;20465;-77
2022/03/11 10:09:50;;;;;;;14.80;10.00;;;17.80;34.60;;;;;;5092562;28;20967;-78
2022/03/11 10:12:21;;;;;;;17.23;9.63;;;18.40;34.90;;;;;;5092562;28;20473;-78
2022/03/11 10:15:03;;;;;;;19.53;10.60;;;18.80;34.30;;;;;;5092649;28;20449;-78
2022/03/11 10:17:39;;;;;;;13.00;9.70;;;18.30;32.40;;;;;;5092308;28;20932;-77
2022/03/11 10:20:08;;;;;;;13.73;10.27;;;18.60;34.30;;;;;;5094999;28;20441;-78
2022/03/11 10:22:35;;;;;;;14.57;10.20;;;18.70;33.40;;;;;;5095902;28;20442;-79
2022/03/11 10:25:21;;;;;;;18.23;10.43;;;18.90;33.80;;;;;;5094353;28;20415;-77
2022/03/11 10:27:58;;;;;;;17.50;10.50;;;18.70;33.20;;;;;;5092709;28;20463;-78
2022/03/11 10:30:25;;;;;;;17.40;11.13;;;18.80;33.70;;;;;;5096520;28;20492;-77
2022/03/11 10:32:55;;;;;;;13.37;10.13;;;18.90;33.60;;;;;;5096186;28;20436;-78
2022/03/11 10:35:31;;;;;;;19.70;10.20;;;19.00;33.20;;;;;;5094754;28;20447;-78
2022/03/11 10:38:03;;;;;;;16.63;10.20;;;18.90;33.20;;;;;;5096819;28;20429;-79
2022/03/11 10:40:31;;;;;;;12.20;9.60;;;19.10;32.90;;;;;;5098856;28;20419;-78
2022/03/11 10:43:16;;;;;;;16.30;10.70;;;19.20;33.10;;;;;;5097851;28;20436;-78
2022/03/11 10:45:56;;;;;;;22.73;9.77;;;19.40;33.00;;;;;;5095627;28;20419;-79
2022/03/11 10:48:41;;;;;;;33.13;11.20;;;19.00;32.60;;;;;;5095823;28;20452;-78
2022/03/11 10:51:24;;;;;;;24.63;11.10;;;19.30;32.40;;;;;;5091248;28;20491;-78
2022/03/11 10:53:50;;;;;;;12.23;9.97;;;19.60;32.90;;;;;;5091955;28;20407;-78
2022/03/11 10:56:29;;;;;;;15.43;10.73;;;19.90;32.50;;;;;;5091861;28;20417;-77
2022/03/11 10:58:56;;;;;;;17.43;10.60;;;19.40;32.10;;;;;;5093112;28;20434;-78
2022/03/11 11:01:38;;;;;;;13.60;10.33;;;19.40;32.20;;;;;;5093076;28;20429;-78
2022/03/11 11:04:07;;;;;;;17.67;10.70;;;19.60;32.40;;;;;;5094177;28;20496;-80
2022/03/11 11:06:34;;;;;;;17.30;10.57;;;19.70;32.20;;;;;;5091573;28;20835;-76
2022/03/11 11:09:00;;;;;;;19.47;9.97;;;20.00;31.60;;;;;;5094498;28;20474;-79
2022/03/11 11:11:26;;;;;;;12.67;10.33;;;19.90;31.60;;;;;;5090989;28;20423;-77
2022/03/11 11:13:52;;;;;;;19.53;11.30;;;19.80;31.90;;;;;;5072772;28;20427;-77
2022/03/11 11:16:24;;;;;;;16.57;10.90;;;20.10;31.30;;;;;;5089932;28;20649;-79
2022/03/11 11:18:51;;;;;;;11.97;9.27;;;20.30;31.80;;;;;;5093965;28;20420;-79
2022/03/11 11:21:24;;;;;;;12.00;8.40;;;20.30;31.40;;;;;;5094363;28;20424;-79
2022/03/11 11:23:54;;;;;;;12.40;9.90;;;20.70;31.30;;;;;;5090593;28;20413;-79
2022/03/11 11:26:23;;;;;;;16.47;9.77;;;20.60;31.40;;;;;;5071163;28;20428;-77
2022/03/11 11:29:00;;;;;;;17.00;10.70;;;20.60;31.20;;;;;;5091703;28;20463;-78
2022/03/11 11:31:27;;;;;;;16.10;10.13;;;20.30;31.00;;;;;;5093939;28;20413;-78
2022/03/11 11:33:52;;;;;;;15.40;9.90;;;20.70;31.90;;;;;;5094100;28;20520;-78
2022/03/11 11:36:39;;;;;;;13.50;9.57;;;20.70;31.90;;;;;;5089442;28;20417;-77
2022/03/11 11:39:07;;;;;;;15.27;10.63;;;20.60;31.30;;;;;;5087358;28;20321;-76
2022/03/11 11:41:34;;;;;;;16.13;9.80;;;20.70;31.70;;;;;;5087419;28;20422;-78
2022/03/11 11:44:08;;;;;;;15.43;10.03;;;20.70;31.50;;;;;;5086735;28;20415;-78
2022/03/11 11:46:37;;;;;;;17.37;10.27;;;20.80;30.30;;;;;;5088141;28;20417;-78
2022/03/11 11:49:13;;;;;;;18.50;10.00;;;20.70;30.50;;;;;;5088029;28;20459;-77
2022/03/11 11:51:38;;;;;;;21.47;10.90;;;20.90;31.10;;;;;;5088352;28;20527;-78
2022/03/11 11:54:08;;;;;;;13.90;10.20;;;21.00;31.30;;;;;;5087935;28;20511;-77
2022/03/11 11:56:36;;;;;;;17.20;11.20;;;21.10;31.70;;;;;;5086085;28;20193;-76
2022/03/11 11:59:24;;;;;;;13.10;9.83;;;21.10;30.60;;;;;;5086093;28;20468;-77
2022/03/11 12:01:55;;;;;;;17.67;11.57;;;21.30;30.70;;;;;;5087694;28;20439;-77
2022/03/11 12:04:38;;;;;;;12.70;10.20;;;21.20;30.60;;;;;;5087379;28;20419;-77
2022/03/11 12:07:13;;;;;;;14.93;10.03;;;20.70;30.40;;;;;;5087504;28;20817;-77
2022/03/11 12:12:17;;;;;;;15.87;10.70;;;21.00;30.90;;;;;;5087960;28;20483;-76
2022/03/11 12:14:58;;;;;;;12.00;10.60;;;21.00;30.60;;;;;;5087107;28;20607;-78
2022/03/11 12:17:44;;;;;;;18.00;11.20;;;21.00;30.90;;;;;;5087777;28;20763;-76
2022/03/11 12:20:31;;;;;;;19.70;11.00;;;21.00;31.10;;;;;;5087273;28;20432;-77
2022/03/11 12:23:16;;;;;;;17.27;11.40;;;21.40;32.20;;;;;;5085871;28;20446;-78
2022/03/11 12:25:58;;;;;;;19.10;10.60;;;21.30;30.60;;;;;;5087432;28;20418;-77
2022/03/11 12:28:30;;;;;;;15.37;10.97;;;21.50;30.40;;;;;;5087840;28;20847;-78
2022/03/11 12:30:58;;;;;;;15.67;11.07;;;21.50;31.10;;;;;;5089667;28;20461;-78
2022/03/11 12:33:46;;;;;;;14.40;10.47;;;21.30;30.50;;;;;;5088875;28;20454;-77
2022/03/11 12:36:20;;;;;;;13.20;9.77;;;21.00;30.50;;;;;;5088582;28;20515;-76
2022/03/11 12:38:46;;;;;;;19.20;10.23;;;21.00;30.60;;;;;;5088544;28;20522;-76
2022/03/11 12:41:37;;;;;;;21.70;10.83;;;21.30;31.40;;;;;;5087424;28;20515;-77
2022/03/11 12:44:03;;;;;;;16.03;11.40;;;21.10;31.00;;;;;;5088374;28;20441;-77